sensor_id;sensor_type;location;lat;lon;timestamp;P1;durP1;ratioP1;P2;durP2;ratioP2
62037;SDS011;47991;42.974;12.082;2024-01-30T00:02:17;5.10;;;2.00;;
62037;SDS011;47991;42.974;12.082;2024-01-30T00:04:44;7.30;;;2.20;;
62037;SDS011;47991;42.974;12.082;2024-01-30T00:07:11;4.80;;;2.20;;
62037;SDS011;47991;42.974;12.082;2024-01-30T00:09:38;6.00;;;2.70;;
62037;SDS011;47991;42.974;12.082;2024-01-30T00:14:35;4.80;;;1.90;;
62037;SDS011;47991;42.974;12.082;2024-01-30T00:17:02;5.00;;;1.90;;
62037;SDS011;47991;42.974;12.082;2024-01-30T00:19:29;5.90;;;2.30;;
62037;SDS011;47991;42.974;12.082;2024-01-30T00:21:56;4.90;;;2.00;;
62037;SDS011;47991;42.974;12.082;2024-01-30T00:24:23;5.40;;;2.30;;
62037;SDS011;47991;42.974;12.082;2024-01-30T00:26:49;4.50;;;2.00;;
62037;SDS011;47991;42.974;12.082;2024-01-30T00:29:16;4.90;;;2.10;;
62037;SDS011;47991;42.974;12.082;2024-01-30T00:31:46;7.20;;;2.60;;
62037;SDS011;47991;42.974;12.082;2024-01-30T00:34:13;6.40;;;2.30;;
62037;SDS011;47991;42.974;12.082;2024-01-30T00:36:40;6.50;;;2.60;;
62037;SDS011;47991;42.974;12.082;2024-01-30T00:39:07;8.50;;;2.80;;
62037;SDS011;47991;42.974;12.082;2024-01-30T00:41:35;7.30;;;2.50;;
62037;SDS011;47991;42.974;12.082;2024-01-30T00:44:02;5.70;;;2.50;;
62037;SDS011;47991;42.974;12.082;2024-01-30T00:46:30;6.50;;;2.50;;
62037;SDS011;47991;42.974;12.082;2024-01-30T00:48:57;6.30;;;2.90;;
62037;SDS011;47991;42.974;12.082;2024-01-30T00:51:24;6.50;;;2.90;;
62037;SDS011;47991;42.974;12.082;2024-01-30T00:53:51;7.00;;;3.10;;
62037;SDS011;47991;42.974;12.082;2024-01-30T00:56:18;8.10;;;3.00;;
62037;SDS011;47991;42.974;12.082;2024-01-30T00:58:45;5.90;;;2.30;;
62037;SDS011;47991;42.974;12.082;2024-01-30T01:01:13;5.90;;;2.70;;
62037;SDS011;47991;42.974;12.082;2024-01-30T01:03:41;5.50;;;2.40;;
62037;SDS011;47991;42.974;12.082;2024-01-30T01:06:10;7.90;;;2.90;;
62037;SDS011;47991;42.974;12.082;2024-01-30T01:08:37;6.90;;;2.70;;
62037;SDS011;47991;42.974;12.082;2024-01-30T01:11:04;8.80;;;2.70;;
62037;SDS011;47991;42.974;12.082;2024-01-30T01:13:31;7.30;;;2.80;;
62037;SDS011;47991;42.974;12.082;2024-01-30T01:15:58;8.40;;;3.00;;
62037;SDS011;47991;42.974;12.082;2024-01-30T01:18:25;6.70;;;2.90;;
62037;SDS011;47991;42.974;12.082;2024-01-30T01:20:53;6.50;;;2.80;;
62037;SDS011;47991;42.974;12.082;2024-01-30T01:23:20;6.20;;;2.50;;
62037;SDS011;47991;42.974;12.082;2024-01-30T01:25:47;7.50;;;2.70;;
62037;SDS011;47991;42.974;12.082;2024-01-30T01:28:14;7.70;;;3.00;;
62037;SDS011;47991;42.974;12.082;2024-01-30T01:30:41;7.00;;;3.10;;
62037;SDS011;47991;42.974;12.082;2024-01-30T01:33:11;6.80;;;2.70;;
62037;SDS011;47991;42.974;12.082;2024-01-30T01:35:40;6.40;;;2.80;;
62037;SDS011;47991;42.974;12.082;2024-01-30T01:38:07;6.90;;;2.50;;
62037;SDS011;47991;42.974;12.082;2024-01-30T01:40:35;7.70;;;3.20;;
62037;SDS011;47991;42.974;12.082;2024-01-30T01:43:03;6.70;;;2.70;;
62037;SDS011;47991;42.974;12.082;2024-01-30T01:45:31;8.00;;;3.10;;
62037;SDS011;47991;42.974;12.082;2024-01-30T01:47:58;6.30;;;2.70;;
62037;SDS011;47991;42.974;12.082;2024-01-30T01:50:26;7.10;;;2.60;;
62037;SDS011;47991;42.974;12.082;2024-01-30T01:52:53;6.50;;;2.50;;
62037;SDS011;47991;42.974;12.082;2024-01-30T01:55:23;7.70;;;2.80;;
62037;SDS011;47991;42.974;12.082;2024-01-30T01:57:52;8.00;;;2.50;;
62037;SDS011;47991;42.974;12.082;2024-01-30T02:00:20;6.50;;;2.20;;
62037;SDS011;47991;42.974;12.082;2024-01-30T02:02:47;4.80;;;2.20;;
62037;SDS011;47991;42.974;12.082;2024-01-30T02:05:18;4.80;;;2.20;;
62037;SDS011;47991;42.974;12.082;2024-01-30T02:07:45;7.60;;;3.10;;
62037;SDS011;47991;42.974;12.082;2024-01-30T02:10:13;7.90;;;2.50;;
62037;SDS011;47991;42.974;12.082;2024-01-30T02:12:40;6.10;;;2.40;;
62037;SDS011;47991;42.974;12.082;2024-01-30T02:15:07;5.70;;;2.30;;
62037;SDS011;47991;42.974;12.082;2024-01-30T02:17:34;5.10;;;2.50;;
62037;SDS011;47991;42.974;12.082;2024-01-30T02:20:03;6.00;;;2.10;;
62037;SDS011;47991;42.974;12.082;2024-01-30T02:22:32;6.40;;;2.60;;
62037;SDS011;47991;42.974;12.082;2024-01-30T02:25:02;8.80;;;3.00;;
62037;SDS011;47991;42.974;12.082;2024-01-30T02:27:29;5.10;;;2.20;;
62037;SDS011;47991;42.974;12.082;2024-01-30T02:29:56;9.10;;;2.50;;
62037;SDS011;47991;42.974;12.082;2024-01-30T02:32:23;5.60;;;2.80;;
62037;SDS011;47991;42.974;12.082;2024-01-30T02:34:52;5.50;;;2.50;;
62037;SDS011;47991;42.974;12.082;2024-01-30T02:37:19;6.70;;;2.30;;
62037;SDS011;47991;42.974;12.082;2024-01-30T02:39:46;8.10;;;2.90;;
62037;SDS011;47991;42.974;12.082;2024-01-30T02:42:13;7.90;;;2.80;;
62037;SDS011;47991;42.974;12.082;2024-01-30T02:44:40;7.40;;;2.70;;
62037;SDS011;47991;42.974;12.082;2024-01-30T02:47:07;6.30;;;2.90;;
62037;SDS011;47991;42.974;12.082;2024-01-30T02:49:34;6.30;;;2.50;;
62037;SDS011;47991;42.974;12.082;2024-01-30T02:52:01;5.70;;;2.30;;
62037;SDS011;47991;42.974;12.082;2024-01-30T02:54:29;7.10;;;2.30;;
62037;SDS011;47991;42.974;12.082;2024-01-30T02:56:57;8.00;;;2.60;;
62037;SDS011;47991;42.974;12.082;2024-01-30T02:59:24;6.50;;;2.10;;
62037;SDS011;47991;42.974;12.082;2024-01-30T03:01:51;6.90;;;2.30;;
62037;SDS011;47991;42.974;12.082;2024-01-30T03:04:18;5.40;;;2.00;;
62037;SDS011;47991;42.974;12.082;2024-01-30T03:06:45;6.20;;;2.50;;
62037;SDS011;47991;42.974;12.082;2024-01-30T03:09:15;7.00;;;2.30;;
62037;SDS011;47991;42.974;12.082;2024-01-30T03:11:43;6.50;;;2.30;;
62037;SDS011;47991;42.974;12.082;2024-01-30T03:14:10;6.90;;;2.30;;
62037;SDS011;47991;42.974;12.082;2024-01-30T03:16:37;4.40;;;2.10;;
62037;SDS011;47991;42.974;12.082;2024-01-30T03:19:07;4.90;;;2.10;;
62037;SDS011;47991;42.974;12.082;2024-01-30T03:21:35;4.40;;;2.00;;
62037;SDS011;47991;42.974;12.082;2024-01-30T03:24:02;6.00;;;2.40;;
62037;SDS011;47991;42.974;12.082;2024-01-30T03:26:30;5.00;;;2.10;;
62037;SDS011;47991;42.974;12.082;2024-01-30T03:28:57;6.30;;;2.30;;
62037;SDS011;47991;42.974;12.082;2024-01-30T03:31:24;4.80;;;2.00;;
62037;SDS011;47991;42.974;12.082;2024-01-30T03:33:51;6.00;;;2.20;;
62037;SDS011;47991;42.974;12.082;2024-01-30T03:36:18;5.50;;;2.20;;
62037;SDS011;47991;42.974;12.082;2024-01-30T03:38:45;6.90;;;2.30;;
62037;SDS011;47991;42.974;12.082;2024-01-30T03:41:12;5.70;;;2.50;;
62037;SDS011;47991;42.974;12.082;2024-01-30T03:43:40;5.10;;;2.30;;
62037;SDS011;47991;42.974;12.082;2024-01-30T03:46:07;6.40;;;2.50;;
62037;SDS011;47991;42.974;12.082;2024-01-30T03:48:34;4.20;;;2.00;;
62037;SDS011;47991;42.974;12.082;2024-01-30T03:51:01;5.20;;;2.10;;
62037;SDS011;47991;42.974;12.082;2024-01-30T03:53:28;5.40;;;2.00;;
62037;SDS011;47991;42.974;12.082;2024-01-30T03:55:55;6.70;;;2.10;;
62037;SDS011;47991;42.974;12.082;2024-01-30T03:58:22;7.70;;;2.40;;
62037;SDS011;47991;42.974;12.082;2024-01-30T04:00:50;7.40;;;2.40;;
62037;SDS011;47991;42.974;12.082;2024-01-30T04:03:17;8.20;;;2.10;;
62037;SDS011;47991;42.974;12.082;2024-01-30T04:05:44;5.00;;;2.40;;
62037;SDS011;47991;42.974;12.082;2024-01-30T04:08:11;4.30;;;1.90;;
62037;SDS011;47991;42.974;12.082;2024-01-30T04:10:38;4.70;;;2.30;;
62037;SDS011;47991;42.974;12.082;2024-01-30T04:13:05;5.30;;;2.00;;
62037;SDS011;47991;42.974;12.082;2024-01-30T04:15:32;4.80;;;2.10;;
62037;SDS011;47991;42.974;12.082;2024-01-30T04:17:59;6.40;;;2.30;;
62037;SDS011;47991;42.974;12.082;2024-01-30T04:20:26;6.00;;;2.00;;
62037;SDS011;47991;42.974;12.082;2024-01-30T04:22:54;6.00;;;2.20;;
62037;SDS011;47991;42.974;12.082;2024-01-30T04:25:21;5.50;;;2.20;;
62037;SDS011;47991;42.974;12.082;2024-01-30T04:27:48;6.00;;;2.40;;
62037;SDS011;47991;42.974;12.082;2024-01-30T04:30:15;4.70;;;2.10;;
62037;SDS011;47991;42.974;12.082;2024-01-30T04:32:43;8.40;;;2.50;;
62037;SDS011;47991;42.974;12.082;2024-01-30T04:35:10;7.20;;;2.50;;
62037;SDS011;47991;42.974;12.082;2024-01-30T04:37:38;5.50;;;2.20;;
62037;SDS011;47991;42.974;12.082;2024-01-30T04:40:05;5.00;;;2.40;;
62037;SDS011;47991;42.974;12.082;2024-01-30T04:42:33;6.20;;;2.40;;
62037;SDS011;47991;42.974;12.082;2024-01-30T04:44:59;6.30;;;2.60;;
62037;SDS011;47991;42.974;12.082;2024-01-30T04:47:27;5.80;;;2.40;;
62037;SDS011;47991;42.974;12.082;2024-01-30T04:49:54;4.70;;;2.30;;
62037;SDS011;47991;42.974;12.082;2024-01-30T04:52:21;5.80;;;2.50;;
62037;SDS011;47991;42.974;12.082;2024-01-30T04:54:48;7.30;;;2.50;;
62037;SDS011;47991;42.974;12.082;2024-01-30T04:57:15;7.30;;;2.60;;
62037;SDS011;47991;42.974;12.082;2024-01-30T04:59:41;6.60;;;2.80;;
62037;SDS011;47991;42.974;12.082;2024-01-30T05:02:09;7.40;;;2.70;;
62037;SDS011;47991;42.974;12.082;2024-01-30T05:04:36;6.40;;;2.70;;
62037;SDS011;47991;42.974;12.082;2024-01-30T05:07:03;7.40;;;2.60;;
62037;SDS011;47991;42.974;12.082;2024-01-30T05:09:31;7.50;;;3.00;;
62037;SDS011;47991;42.974;12.082;2024-01-30T05:11:58;7.70;;;3.20;;
62037;SDS011;47991;42.974;12.082;2024-01-30T05:14:25;8.30;;;3.10;;
62037;SDS011;47991;42.974;12.082;2024-01-30T05:16:52;6.90;;;2.80;;
62037;SDS011;47991;42.974;12.082;2024-01-30T05:19:19;8.10;;;3.40;;
62037;SDS011;47991;42.974;12.082;2024-01-30T05:21:47;6.80;;;2.90;;
62037;SDS011;47991;42.974;12.082;2024-01-30T05:24:13;6.80;;;2.90;;
62037;SDS011;47991;42.974;12.082;2024-01-30T05:26:41;7.50;;;2.80;;
62037;SDS011;47991;42.974;12.082;2024-01-30T05:29:08;6.10;;;2.80;;
62037;SDS011;47991;42.974;12.082;2024-01-30T05:31:35;8.10;;;2.90;;
62037;SDS011;47991;42.974;12.082;2024-01-30T05:34:02;7.10;;;3.10;;
62037;SDS011;47991;42.974;12.082;2024-01-30T05:36:31;10.20;;;3.30;;
62037;SDS011;47991;42.974;12.082;2024-01-30T05:38:58;7.60;;;3.30;;
62037;SDS011;47991;42.974;12.082;2024-01-30T05:41:25;7.10;;;2.80;;
62037;SDS011;47991;42.974;12.082;2024-01-30T05:43:52;8.50;;;3.70;;
62037;SDS011;47991;42.974;12.082;2024-01-30T05:46:19;7.20;;;2.80;;
62037;SDS011;47991;42.974;12.082;2024-01-30T05:48:46;7.10;;;3.30;;
62037;SDS011;47991;42.974;12.082;2024-01-30T05:51:13;6.40;;;2.80;;
62037;SDS011;47991;42.974;12.082;2024-01-30T05:53:40;6.70;;;2.70;;
62037;SDS011;47991;42.974;12.082;2024-01-30T05:56:07;8.70;;;3.20;;
62037;SDS011;47991;42.974;12.082;2024-01-30T05:58:34;7.00;;;3.00;;
62037;SDS011;47991;42.974;12.082;2024-01-30T06:01:01;9.80;;;3.40;;
62037;SDS011;47991;42.974;12.082;2024-01-30T06:03:28;7.10;;;2.60;;
62037;SDS011;47991;42.974;12.082;2024-01-30T06:05:55;6.80;;;2.60;;
62037;SDS011;47991;42.974;12.082;2024-01-30T06:08:22;5.40;;;2.40;;
62037;SDS011;47991;42.974;12.082;2024-01-30T06:10:49;6.40;;;2.50;;
62037;SDS011;47991;42.974;12.082;2024-01-30T06:13:16;6.00;;;2.50;;
62037;SDS011;47991;42.974;12.082;2024-01-30T06:15:43;6.80;;;2.80;;
62037;SDS011;47991;42.974;12.082;2024-01-30T06:18:10;6.50;;;2.70;;
62037;SDS011;47991;42.974;12.082;2024-01-30T06:20:37;5.20;;;2.30;;
62037;SDS011;47991;42.974;12.082;2024-01-30T06:23:04;6.50;;;2.30;;
62037;SDS011;47991;42.974;12.082;2024-01-30T06:25:31;6.90;;;2.70;;
62037;SDS011;47991;42.974;12.082;2024-01-30T06:27:58;5.80;;;2.50;;
62037;SDS011;47991;42.974;12.082;2024-01-30T06:30:25;6.80;;;2.60;;
62037;SDS011;47991;42.974;12.082;2024-01-30T06:32:52;6.60;;;2.60;;
62037;SDS011;47991;42.974;12.082;2024-01-30T06:35:20;6.20;;;2.60;;
62037;SDS011;47991;42.974;12.082;2024-01-30T06:37:48;6.10;;;2.30;;
62037;SDS011;47991;42.974;12.082;2024-01-30T06:40:15;5.70;;;2.30;;
62037;SDS011;47991;42.974;12.082;2024-01-30T06:42:42;6.60;;;2.60;;
62037;SDS011;47991;42.974;12.082;2024-01-30T06:45:09;5.50;;;2.30;;
62037;SDS011;47991;42.974;12.082;2024-01-30T06:47:36;8.00;;;2.90;;
62037;SDS011;47991;42.974;12.082;2024-01-30T06:50:03;11.70;;;3.10;;
62037;SDS011;47991;42.974;12.082;2024-01-30T06:52:31;9.20;;;2.90;;
62037;SDS011;47991;42.974;12.082;2024-01-30T06:54:58;9.50;;;3.50;;
62037;SDS011;47991;42.974;12.082;2024-01-30T06:57:25;6.40;;;2.60;;
62037;SDS011;47991;42.974;12.082;2024-01-30T06:59:54;4.80;;;2.30;;
62037;SDS011;47991;42.974;12.082;2024-01-30T07:02:21;5.30;;;2.40;;
62037;SDS011;47991;42.974;12.082;2024-01-30T07:04:48;7.00;;;2.40;;
62037;SDS011;47991;42.974;12.082;2024-01-30T07:07:16;4.10;;;1.90;;
62037;SDS011;47991;42.974;12.082;2024-01-30T07:09:43;6.50;;;2.60;;
62037;SDS011;47991;42.974;12.082;2024-01-30T07:12:11;7.90;;;2.50;;
62037;SDS011;47991;42.974;12.082;2024-01-30T07:14:38;6.80;;;2.50;;
62037;SDS011;47991;42.974;12.082;2024-01-30T07:17:05;6.00;;;2.50;;
62037;SDS011;47991;42.974;12.082;2024-01-30T07:19:32;6.90;;;2.70;;
62037;SDS011;47991;42.974;12.082;2024-01-30T07:22:01;11.40;;;4.20;;
62037;SDS011;47991;42.974;12.082;2024-01-30T07:24:28;8.30;;;3.40;;
62037;SDS011;47991;42.974;12.082;2024-01-30T07:26:55;6.90;;;3.00;;
62037;SDS011;47991;42.974;12.082;2024-01-30T07:29:22;9.50;;;3.30;;
62037;SDS011;47991;42.974;12.082;2024-01-30T07:31:49;5.10;;;2.30;;
62037;SDS011;47991;42.974;12.082;2024-01-30T07:34:16;6.90;;;2.40;;
62037;SDS011;47991;42.974;12.082;2024-01-30T07:36:43;5.40;;;2.20;;
62037;SDS011;47991;42.974;12.082;2024-01-30T07:39:10;5.40;;;2.10;;
62037;SDS011;47991;42.974;12.082;2024-01-30T07:41:37;3.80;;;1.90;;
62037;SDS011;47991;42.974;12.082;2024-01-30T07:44:04;6.20;;;2.40;;
62037;SDS011;47991;42.974;12.082;2024-01-30T07:46:31;6.20;;;2.40;;
62037;SDS011;47991;42.974;12.082;2024-01-30T07:48:59;6.70;;;2.80;;
62037;SDS011;47991;42.974;12.082;2024-01-30T07:51:27;6.50;;;2.50;;
62037;SDS011;47991;42.974;12.082;2024-01-30T07:53:55;6.20;;;2.60;;
62037;SDS011;47991;42.974;12.082;2024-01-30T07:56:23;5.50;;;2.30;;
62037;SDS011;47991;42.974;12.082;2024-01-30T07:58:50;7.00;;;2.80;;
62037;SDS011;47991;42.974;12.082;2024-01-30T08:01:18;7.10;;;2.50;;
62037;SDS011;47991;42.974;12.082;2024-01-30T08:03:45;7.80;;;3.00;;
62037;SDS011;47991;42.974;12.082;2024-01-30T08:06:12;7.00;;;3.20;;
62037;SDS011;47991;42.974;12.082;2024-01-30T08:08:39;9.30;;;3.90;;
62037;SDS011;47991;42.974;12.082;2024-01-30T08:11:06;8.90;;;3.10;;
62037;SDS011;47991;42.974;12.082;2024-01-30T08:13:34;8.60;;;3.70;;
62037;SDS011;47991;42.974;12.082;2024-01-30T08:16:01;9.50;;;4.20;;
62037;SDS011;47991;42.974;12.082;2024-01-30T08:18:28;8.40;;;3.90;;
62037;SDS011;47991;42.974;12.082;2024-01-30T08:20:55;11.10;;;4.90;;
62037;SDS011;47991;42.974;12.082;2024-01-30T08:23:22;12.90;;;5.90;;
62037;SDS011;47991;42.974;12.082;2024-01-30T08:25:49;9.60;;;4.20;;
62037;SDS011;47991;42.974;12.082;2024-01-30T08:28:16;8.60;;;4.20;;
62037;SDS011;47991;42.974;12.082;2024-01-30T08:30:43;11.00;;;5.50;;
62037;SDS011;47991;42.974;12.082;2024-01-30T08:33:10;8.70;;;4.30;;
62037;SDS011;47991;42.974;12.082;2024-01-30T08:35:37;9.70;;;4.70;;
62037;SDS011;47991;42.974;12.082;2024-01-30T08:38:05;11.30;;;4.60;;
62037;SDS011;47991;42.974;12.082;2024-01-30T08:40:33;9.10;;;4.70;;
62037;SDS011;47991;42.974;12.082;2024-01-30T08:42:59;11.20;;;6.00;;
62037;SDS011;47991;42.974;12.082;2024-01-30T08:45:27;12.60;;;5.70;;
62037;SDS011;47991;42.974;12.082;2024-01-30T08:47:53;10.60;;;5.50;;
62037;SDS011;47991;42.974;12.082;2024-01-30T08:50:21;9.20;;;5.30;;
62037;SDS011;47991;42.974;12.082;2024-01-30T08:52:48;13.60;;;5.60;;
62037;SDS011;47991;42.974;12.082;2024-01-30T08:55:15;9.80;;;5.50;;
62037;SDS011;47991;42.974;12.082;2024-01-30T08:57:42;13.30;;;6.20;;
62037;SDS011;47991;42.974;12.082;2024-01-30T09:00:09;11.20;;;6.10;;
62037;SDS011;47991;42.974;12.082;2024-01-30T09:02:37;12.80;;;6.00;;
62037;SDS011;47991;42.974;12.082;2024-01-30T09:05:05;15.00;;;6.90;;
62037;SDS011;47991;42.974;12.082;2024-01-30T09:07:32;10.00;;;5.90;;
62037;SDS011;47991;42.974;12.082;2024-01-30T09:09:59;12.90;;;6.10;;
62037;SDS011;47991;42.974;12.082;2024-01-30T09:12:26;12.90;;;7.40;;
62037;SDS011;47991;42.974;12.082;2024-01-30T09:14:53;12.10;;;6.70;;
62037;SDS011;47991;42.974;12.082;2024-01-30T09:17:21;11.80;;;7.00;;
62037;SDS011;47991;42.974;12.082;2024-01-30T09:19:47;11.80;;;6.80;;
62037;SDS011;47991;42.974;12.082;2024-01-30T09:22:15;13.40;;;7.00;;
62037;SDS011;47991;42.974;12.082;2024-01-30T09:24:42;13.60;;;7.20;;
62037;SDS011;47991;42.974;12.082;2024-01-30T09:27:09;13.10;;;6.40;;
62037;SDS011;47991;42.974;12.082;2024-01-30T09:29:36;10.40;;;6.30;;
62037;SDS011;47991;42.974;12.082;2024-01-30T09:32:04;13.40;;;7.20;;
62037;SDS011;47991;42.974;12.082;2024-01-30T09:34:32;15.20;;;6.90;;
62037;SDS011;47991;42.974;12.082;2024-01-30T09:36:59;14.10;;;8.00;;
62037;SDS011;47991;42.974;12.082;2024-01-30T09:39:26;14.10;;;8.10;;
62037;SDS011;47991;42.974;12.082;2024-01-30T09:44:55;19.60;;;8.60;;
62037;SDS011;47991;42.974;12.082;2024-01-30T09:47:23;18.60;;;8.40;;
62037;SDS011;47991;42.974;12.082;2024-01-30T09:49:51;18.60;;;9.50;;
62037;SDS011;47991;42.974;12.082;2024-01-30T09:52:18;19.70;;;9.10;;
62037;SDS011;47991;42.974;12.082;2024-01-30T09:54:45;14.20;;;8.80;;
62037;SDS011;47991;42.974;12.082;2024-01-30T09:57:14;17.70;;;9.90;;
62037;SDS011;47991;42.974;12.082;2024-01-30T09:59:41;13.80;;;9.30;;
62037;SDS011;47991;42.974;12.082;2024-01-30T10:02:09;14.70;;;10.10;;
62037;SDS011;47991;42.974;12.082;2024-01-30T10:04:36;13.70;;;8.80;;
62037;SDS011;47991;42.974;12.082;2024-01-30T10:07:03;14.00;;;9.40;;
62037;SDS011;47991;42.974;12.082;2024-01-30T10:09:34;15.70;;;9.90;;
62037;SDS011;47991;42.974;12.082;2024-01-30T10:12:01;14.90;;;9.80;;
62037;SDS011;47991;42.974;12.082;2024-01-30T10:14:30;12.30;;;8.80;;
62037;SDS011;47991;42.974;12.082;2024-01-30T10:16:57;13.80;;;8.70;;
62037;SDS011;47991;42.974;12.082;2024-01-30T10:19:25;12.80;;;9.10;;
62037;SDS011;47991;42.974;12.082;2024-01-30T10:21:53;12.30;;;8.70;;
62037;SDS011;47991;42.974;12.082;2024-01-30T10:24:23;11.90;;;7.80;;
62037;SDS011;47991;42.974;12.082;2024-01-30T10:26:52;23.10;;;15.10;;
62037;SDS011;47991;42.974;12.082;2024-01-30T10:29:20;65.50;;;34.20;;
62037;SDS011;47991;42.974;12.082;2024-01-30T10:32:03;36.60;;;22.20;;
62037;SDS011;47991;42.974;12.082;2024-01-30T10:34:33;16.00;;;10.30;;
62037;SDS011;47991;42.974;12.082;2024-01-30T10:37:08;15.30;;;8.60;;
62037;SDS011;47991;42.974;12.082;2024-01-30T10:39:44;16.00;;;8.60;;
62037;SDS011;47991;42.974;12.082;2024-01-30T10:42:17;13.90;;;8.20;;
62037;SDS011;47991;42.974;12.082;2024-01-30T10:45:00;17.30;;;7.90;;
62037;SDS011;47991;42.974;12.082;2024-01-30T10:47:35;21.00;;;10.80;;
62037;SDS011;47991;42.974;12.082;2024-01-30T10:50:04;19.20;;;10.70;;
62037;SDS011;47991;42.974;12.082;2024-01-30T10:52:32;15.20;;;7.50;;
62037;SDS011;47991;42.974;12.082;2024-01-30T10:55:07;12.80;;;6.30;;
62037;SDS011;47991;42.974;12.082;2024-01-30T10:57:35;10.80;;;5.90;;
62037;SDS011;47991;42.974;12.082;2024-01-30T11:00:09;11.60;;;6.10;;
62037;SDS011;47991;42.974;12.082;2024-01-30T11:02:42;11.50;;;6.50;;
62037;SDS011;47991;42.974;12.082;2024-01-30T11:05:11;10.40;;;5.00;;
62037;SDS011;47991;42.974;12.082;2024-01-30T11:07:39;9.20;;;4.50;;
62037;SDS011;47991;42.974;12.082;2024-01-30T11:10:07;9.20;;;4.40;;
62037;SDS011;47991;42.974;12.082;2024-01-30T11:12:40;9.80;;;4.10;;
62037;SDS011;47991;42.974;12.082;2024-01-30T11:15:09;8.30;;;3.60;;
62037;SDS011;47991;42.974;12.082;2024-01-30T11:17:47;9.70;;;5.50;;
62037;SDS011;47991;42.974;12.082;2024-01-30T11:20:26;7.70;;;4.50;;
62037;SDS011;47991;42.974;12.082;2024-01-30T11:22:57;9.00;;;4.20;;
62037;SDS011;47991;42.974;12.082;2024-01-30T11:25:25;6.60;;;3.20;;
62037;SDS011;47991;42.974;12.082;2024-01-30T11:27:53;6.00;;;2.40;;
62037;SDS011;47991;42.974;12.082;2024-01-30T11:30:25;6.20;;;2.70;;
62037;SDS011;47991;42.974;12.082;2024-01-30T11:35:32;9.40;;;3.00;;
62037;SDS011;47991;42.974;12.082;2024-01-30T11:38:01;5.30;;;2.40;;
62037;SDS011;47991;42.974;12.082;2024-01-30T11:40:31;6.20;;;2.30;;
62037;SDS011;47991;42.974;12.082;2024-01-30T11:43:00;4.50;;;2.30;;
62037;SDS011;47991;42.974;12.082;2024-01-30T11:45:29;5.70;;;2.20;;
62037;SDS011;47991;42.974;12.082;2024-01-30T11:47:56;5.20;;;2.70;;
62037;SDS011;47991;42.974;12.082;2024-01-30T11:50:24;7.00;;;2.90;;
62037;SDS011;47991;42.974;12.082;2024-01-30T11:52:51;11.30;;;3.70;;
62037;SDS011;47991;42.974;12.082;2024-01-30T11:55:18;6.60;;;2.80;;
62037;SDS011;47991;42.974;12.082;2024-01-30T11:57:46;3.90;;;2.10;;
62037;SDS011;47991;42.974;12.082;2024-01-30T12:00:19;6.20;;;2.70;;
62037;SDS011;47991;42.974;12.082;2024-01-30T12:02:51;5.00;;;2.40;;
62037;SDS011;47991;42.974;12.082;2024-01-30T12:05:22;27.50;;;3.50;;
62037;SDS011;47991;42.974;12.082;2024-01-30T12:07:51;7.00;;;3.00;;
62037;SDS011;47991;42.974;12.082;2024-01-30T12:10:18;6.20;;;2.80;;
62037;SDS011;47991;42.974;12.082;2024-01-30T12:12:46;7.60;;;3.60;;
62037;SDS011;47991;42.974;12.082;2024-01-30T12:15:16;8.00;;;3.90;;
62037;SDS011;47991;42.974;12.082;2024-01-30T12:17:44;8.30;;;4.20;;
62037;SDS011;47991;42.974;12.082;2024-01-30T12:20:15;8.40;;;3.50;;
62037;SDS011;47991;42.974;12.082;2024-01-30T12:22:46;10.10;;;5.00;;
62037;SDS011;47991;42.974;12.082;2024-01-30T12:25:15;9.30;;;4.60;;
62037;SDS011;47991;42.974;12.082;2024-01-30T12:27:44;8.10;;;4.30;;
62037;SDS011;47991;42.974;12.082;2024-01-30T12:30:13;8.00;;;4.20;;
62037;SDS011;47991;42.974;12.082;2024-01-30T12:32:41;7.70;;;3.70;;
62037;SDS011;47991;42.974;12.082;2024-01-30T12:35:10;8.10;;;4.00;;
62037;SDS011;47991;42.974;12.082;2024-01-30T12:37:38;8.50;;;3.80;;
62037;SDS011;47991;42.974;12.082;2024-01-30T12:40:09;7.40;;;3.70;;
62037;SDS011;47991;42.974;12.082;2024-01-30T12:42:38;8.30;;;3.60;;
62037;SDS011;47991;42.974;12.082;2024-01-30T12:45:05;8.00;;;3.90;;
62037;SDS011;47991;42.974;12.082;2024-01-30T12:47:33;8.10;;;3.80;;
62037;SDS011;47991;42.974;12.082;2024-01-30T12:50:00;7.10;;;3.30;;
62037;SDS011;47991;42.974;12.082;2024-01-30T12:52:28;7.20;;;3.50;;
62037;SDS011;47991;42.974;12.082;2024-01-30T12:54:56;7.60;;;3.10;;
62037;SDS011;47991;42.974;12.082;2024-01-30T12:57:23;6.60;;;3.40;;
62037;SDS011;47991;42.974;12.082;2024-01-30T12:59:50;7.80;;;3.80;;
62037;SDS011;47991;42.974;12.082;2024-01-30T13:02:17;7.90;;;3.30;;
62037;SDS011;47991;42.974;12.082;2024-01-30T13:04:44;7.10;;;3.90;;
62037;SDS011;47991;42.974;12.082;2024-01-30T13:07:11;7.70;;;4.20;;
62037;SDS011;47991;42.974;12.082;2024-01-30T13:09:39;8.20;;;3.80;;
62037;SDS011;47991;42.974;12.082;2024-01-30T13:12:06;7.60;;;4.00;;
62037;SDS011;47991;42.974;12.082;2024-01-30T13:14:33;8.30;;;4.40;;
62037;SDS011;47991;42.974;12.082;2024-01-30T13:17:01;8.10;;;4.50;;
62037;SDS011;47991;42.974;12.082;2024-01-30T13:19:28;8.80;;;4.80;;
62037;SDS011;47991;42.974;12.082;2024-01-30T13:21:55;8.30;;;4.70;;
62037;SDS011;47991;42.974;12.082;2024-01-30T13:24:22;10.30;;;5.40;;
62037;SDS011;47991;42.974;12.082;2024-01-30T13:26:49;13.10;;;6.20;;
62037;SDS011;47991;42.974;12.082;2024-01-30T13:29:16;9.90;;;5.40;;
62037;SDS011;47991;42.974;12.082;2024-01-30T13:31:44;8.90;;;5.00;;
62037;SDS011;47991;42.974;12.082;2024-01-30T13:34:13;9.90;;;5.30;;
62037;SDS011;47991;42.974;12.082;2024-01-30T13:36:40;9.10;;;4.80;;
62037;SDS011;47991;42.974;12.082;2024-01-30T13:39:08;8.90;;;4.70;;
62037;SDS011;47991;42.974;12.082;2024-01-30T13:41:37;11.80;;;5.20;;
62037;SDS011;47991;42.974;12.082;2024-01-30T13:44:04;10.70;;;5.10;;
62037;SDS011;47991;42.974;12.082;2024-01-30T13:46:31;10.50;;;4.70;;
62037;SDS011;47991;42.974;12.082;2024-01-30T13:48:58;10.10;;;5.50;;
62037;SDS011;47991;42.974;12.082;2024-01-30T13:51:30;11.80;;;5.60;;
62037;SDS011;47991;42.974;12.082;2024-01-30T13:53:58;10.70;;;5.30;;
62037;SDS011;47991;42.974;12.082;2024-01-30T13:56:25;12.20;;;5.20;;
62037;SDS011;47991;42.974;12.082;2024-01-30T13:58:53;11.60;;;5.70;;
62037;SDS011;47991;42.974;12.082;2024-01-30T14:01:22;11.50;;;5.80;;
62037;SDS011;47991;42.974;12.082;2024-01-30T14:03:50;10.80;;;6.30;;
62037;SDS011;47991;42.974;12.082;2024-01-30T14:06:18;13.00;;;6.70;;
62037;SDS011;47991;42.974;12.082;2024-01-30T14:08:45;12.10;;;6.30;;
62037;SDS011;47991;42.974;12.082;2024-01-30T14:11:12;10.40;;;5.70;;
62037;SDS011;47991;42.974;12.082;2024-01-30T14:13:40;10.50;;;5.10;;
62037;SDS011;47991;42.974;12.082;2024-01-30T14:16:07;9.30;;;5.00;;
62037;SDS011;47991;42.974;12.082;2024-01-30T14:18:34;8.70;;;4.90;;
62037;SDS011;47991;42.974;12.082;2024-01-30T14:21:02;11.80;;;5.30;;
62037;SDS011;47991;42.974;12.082;2024-01-30T14:23:29;8.30;;;5.10;;
62037;SDS011;47991;42.974;12.082;2024-01-30T14:25:56;9.50;;;5.00;;
62037;SDS011;47991;42.974;12.082;2024-01-30T14:28:23;7.80;;;4.40;;
62037;SDS011;47991;42.974;12.082;2024-01-30T14:30:50;8.90;;;5.10;;
62037;SDS011;47991;42.974;12.082;2024-01-30T14:33:18;10.70;;;5.40;;
62037;SDS011;47991;42.974;12.082;2024-01-30T14:35:44;8.80;;;4.90;;
62037;SDS011;47991;42.974;12.082;2024-01-30T14:38:11;9.40;;;5.00;;
62037;SDS011;47991;42.974;12.082;2024-01-30T14:40:44;9.00;;;5.10;;
62037;SDS011;47991;42.974;12.082;2024-01-30T14:43:14;9.40;;;5.10;;